Time;durP1;ratioP1;P1;durP2;ratioP2;P2;SDS_P1;SDS_P2;PMS_P1;PMS_P2;Temp;Humidity;BMP_temperature;BMP_pressure;BME280_temperature;BME280_humidity;BME280_pressure;Samples;Min_cycle;Max_cycle;Signal;HPM_P1;HPM_P2
2023/05/23 00:01:17;;;;;;;6.32;5.15;;;18.40;99.90;;;;;;4996847;28;20183;-74
2023/05/23 00:03:43;;;;;;;6.13;5.10;;;18.40;99.90;;;;;;4987139;28;20207;-74
2023/05/23 00:06:09;;;;;;;6.25;5.35;;;18.30;99.90;;;;;;4990402;28;20199;-74
2023/05/23 00:08:39;;;;;;;7.65;5.10;;;18.30;99.90;;;;;;4988130;28;20194;-74
2023/05/23 00:11:05;;;;;;;6.53;5.72;;;18.30;99.90;;;;;;4990273;28;20172;-71
2023/05/23 00:13:33;;;;;;;6.90;4.63;;;18.20;99.90;;;;;;4992439;28;20335;-73
2023/05/23 00:16:02;;;;;;;5.85;4.88;;;18.20;99.90;;;;;;4992821;28;20202;-70
2023/05/23 00:18:30;;;;;;;6.20;4.90;;;18.10;99.90;;;;;;4988589;28;20172;-73
2023/05/23 00:20:58;;;;;;;5.63;5.03;;;18.00;99.90;;;;;;4995411;28;20199;-73
2023/05/23 00:23:24;;;;;;;7.07;4.85;;;18.00;99.90;;;;;;4987058;28;20194;-70
2023/05/23 00:25:52;;;;;;;5.05;4.50;;;17.90;99.90;;;;;;4994155;28;20290;-72
2023/05/23 00:28:18;;;;;;;5.72;4.47;;;17.90;99.90;;;;;;4992870;28;20175;-75
2023/05/23 00:30:47;;;;;;;4.60;3.97;;;17.90;99.90;;;;;;4990509;28;20184;-73
2023/05/23 00:33:15;;;;;;;5.47;4.60;;;17.80;99.90;;;;;;4982842;28;20265;-75
2023/05/23 00:35:41;;;;;;;5.38;4.88;;;17.80;99.90;;;;;;4992988;28;20172;-69
2023/05/23 00:38:10;;;;;;;6.38;4.88;;;17.80;99.90;;;;;;4991649;28;20184;-74
2023/05/23 00:40:36;;;;;;;6.07;4.90;;;17.80;99.90;;;;;;5005209;28;20203;-73
2023/05/23 00:43:01;;;;;;;6.07;5.00;;;17.80;99.90;;;;;;4987204;28;20186;-73
2023/05/23 00:45:29;;;;;;;5.90;5.20;;;17.80;99.90;;;;;;4979327;28;20263;-74
2023/05/23 00:47:55;;;;;;;6.32;5.25;;;17.70;99.90;;;;;;4993275;28;20226;-74
2023/05/23 00:50:21;;;;;;;5.30;4.68;;;17.70;99.90;;;;;;4990351;28;20207;-74
2023/05/23 00:52:48;;;;;;;5.97;4.57;;;17.70;99.90;;;;;;4987587;28;20198;-72
2023/05/23 00:55:14;;;;;;;6.28;4.80;;;17.60;99.90;;;;;;4992666;28;20293;-67
2023/05/23 00:57:43;;;;;;;5.43;4.82;;;17.60;99.90;;;;;;4986543;28;20733;-70
2023/05/23 01:00:10;;;;;;;5.43;4.50;;;17.60;99.90;;;;;;4991128;28;20215;-71
2023/05/23 01:02:42;;;;;;;6.93;4.72;;;17.60;99.90;;;;;;4983761;28;20188;-74
2023/05/23 01:05:13;;;;;;;5.25;4.75;;;17.50;99.90;;;;;;4983108;28;20183;-70
2023/05/23 01:07:42;;;;;;;5.80;4.57;;;17.50;99.90;;;;;;4988244;28;20314;-69
2023/05/23 01:10:11;;;;;;;5.70;4.80;;;17.50;99.90;;;;;;4992252;28;20254;-73
2023/05/23 01:12:49;;;;;;;5.30;4.57;;;17.50;99.90;;;;;;4992446;28;20250;-74
2023/05/23 01:15:18;;;;;;;5.68;4.60;;;17.40;99.90;;;;;;4994539;28;20207;-73
2023/05/23 01:17:59;;;;;;;6.10;4.47;;;17.40;99.90;;;;;;4984239;28;20194;-75
2023/05/23 01:20:52;;;;;;;5.90;4.68;;;17.30;99.90;;;;;;4981480;28;20179;-74
2023/05/23 01:24:10;;;;;;;6.50;4.80;;;17.30;99.90;;;;;;4986425;28;20199;-72
2023/05/23 01:26:57;;;;;;;6.88;4.45;;;17.30;99.90;;;;;;4965339;28;20211;-75
2023/05/23 01:29:31;;;;;;;5.55;4.47;;;17.30;99.90;;;;;;4995817;28;20242;-76
2023/05/23 01:31:58;;;;;;;6.78;5.65;;;17.20;99.90;;;;;;4998838;28;20206;-74
2023/05/23 01:34:24;;;;;;;6.22;5.20;;;17.20;99.90;;;;;;4998995;28;20190;-74
2023/05/23 01:36:56;;;;;;;7.70;6.00;;;17.20;99.90;;;;;;4998859;28;20176;-73
2023/05/23 01:39:22;;;;;;;7.30;5.93;;;17.20;99.90;;;;;;4998980;28;20171;-75
2023/05/23 01:41:51;;;;;;;6.90;5.53;;;17.20;99.90;;;;;;4998558;28;20179;-72
2023/05/23 01:44:17;;;;;;;6.93;5.60;;;17.20;99.90;;;;;;4982440;28;20191;-75
2023/05/23 01:46:46;;;;;;;7.38;5.78;;;17.20;99.90;;;;;;4994796;28;20190;-74
2023/05/23 01:49:15;;;;;;;6.93;5.32;;;17.20;99.90;;;;;;4997088;28;20203;-74
2023/05/23 01:51:47;;;;;;;7.72;5.85;;;17.20;99.90;;;;;;4988912;28;20209;-74
2023/05/23 01:54:15;;;;;;;6.68;5.82;;;17.20;99.90;;;;;;4991372;28;20176;-74
2023/05/23 01:56:41;;;;;;;7.85;5.45;;;17.30;99.90;;;;;;4997438;28;20213;-74
2023/05/23 01:59:12;;;;;;;9.73;6.63;;;17.30;99.90;;;;;;4994397;28;20172;-74
2023/05/23 02:01:43;;;;;;;7.35;6.25;;;17.30;99.90;;;;;;4993556;28;20214;-73
2023/05/23 02:04:08;;;;;;;8.35;6.72;;;17.40;99.90;;;;;;4995042;28;20265;-74
2023/05/23 02:06:34;;;;;;;8.38;6.88;;;17.40;99.90;;;;;;4995797;28;20186;-75
2023/05/23 02:09:04;;;;;;;9.50;6.95;;;17.40;99.90;;;;;;4997887;28;20260;-74
2023/05/23 02:11:33;;;;;;;8.02;6.82;;;17.40;99.90;;;;;;4985976;28;20211;-72
2023/05/23 02:14:01;;;;;;;9.30;6.97;;;17.40;99.90;;;;;;4992518;28;20176;-75
2023/05/23 02:16:27;;;;;;;9.48;6.80;;;17.40;99.90;;;;;;5006039;28;20191;-72
2023/05/23 02:18:55;;;;;;;8.20;6.53;;;17.40;99.90;;;;;;4996260;28;20217;-73
2023/05/23 02:21:21;;;;;;;8.60;7.25;;;17.40;99.90;;;;;;4997322;28;20187;-74
2023/05/23 02:23:47;;;;;;;8.50;6.70;;;17.40;99.90;;;;;;4994867;28;20214;-73
2023/05/23 02:26:16;;;;;;;8.02;6.68;;;17.40;99.90;;;;;;4978674;28;20180;-70
2023/05/23 02:28:42;;;;;;;9.07;7.25;;;17.40;99.90;;;;;;5002468;28;20266;-73
2023/05/23 02:31:10;;;;;;;11.57;7.40;;;17.40;99.90;;;;;;4994650;28;20295;-72
2023/05/23 02:33:35;;;;;;;8.77;7.57;;;17.40;99.90;;;;;;4985557;28;20187;-71
2023/05/23 02:36:03;;;;;;;7.15;6.18;;;17.40;99.90;;;;;;4985299;28;20184;-72
2023/05/23 02:38:32;;;;;;;5.38;4.50;;;17.40;99.90;;;;;;4980293;28;20278;-73
2023/05/23 02:41:00;;;;;;;6.65;4.00;;;17.40;99.90;;;;;;4994925;28;20179;-73
2023/05/23 02:43:25;;;;;;;5.03;3.80;;;17.40;99.90;;;;;;4993028;28;20179;-71
2023/05/23 02:45:51;;;;;;;3.25;2.95;;;17.40;99.90;;;;;;4993596;28;20223;-73
2023/05/23 02:48:19;;;;;;;4.13;2.95;;;17.40;99.90;;;;;;4990802;28;20226;-73
2023/05/23 02:50:44;;;;;;;2.90;2.60;;;17.40;99.90;;;;;;4992365;28;20279;-73
2023/05/23 02:53:10;;;;;;;2.85;2.50;;;17.40;99.90;;;;;;4990389;28;20294;-73
2023/05/23 02:55:37;;;;;;;3.25;2.33;;;17.40;99.90;;;;;;4992764;28;20191;-70
2023/05/23 02:58:04;;;;;;;4.25;2.70;;;17.40;99.90;;;;;;4992560;28;20203;-73
2023/05/23 03:00:31;;;;;;;3.05;2.55;;;17.30;99.90;;;;;;4994160;28;20176;-72
2023/05/23 03:02:59;;;;;;;2.58;2.38;;;17.40;99.90;;;;;;5001055;28;20187;-73
2023/05/23 03:05:25;;;;;;;3.53;2.58;;;17.40;99.90;;;;;;4993787;28;20202;-73
2023/05/23 03:07:53;;;;;;;3.47;2.28;;;17.40;99.90;;;;;;4990568;28;20279;-68
2023/05/23 03:10:21;;;;;;;3.65;2.28;;;17.40;99.90;;;;;;4992269;28;20180;-73
2023/05/23 03:12:49;;;;;;;2.95;2.10;;;17.30;99.90;;;;;;4989979;28;20218;-72
2023/05/23 03:15:17;;;;;;;3.30;2.33;;;17.30;99.90;;;;;;4991495;28;20187;-72
2023/05/23 03:17:43;;;;;;;3.00;2.47;;;17.40;99.90;;;;;;4988403;28;20326;-72
2023/05/23 03:20:11;;;;;;;3.13;2.50;;;17.40;99.90;;;;;;4990786;28;20187;-73
2023/05/23 03:22:37;;;;;;;2.60;2.20;;;17.40;99.90;;;;;;4995369;28;20194;-73
2023/05/23 03:25:06;;;;;;;2.55;2.03;;;17.40;99.90;;;;;;4997106;28;20187;-74
2023/05/23 03:27:33;;;;;;;4.95;1.98;;;17.40;99.90;;;;;;4980181;28;20243;-71
2023/05/23 03:29:59;;;;;;;2.75;2.13;;;17.40;99.90;;;;;;4995535;28;20203;-74
2023/05/23 03:32:27;;;;;;;2.38;2.17;;;17.40;99.90;;;;;;4991340;28;20207;-74
2023/05/23 03:34:55;;;;;;;3.05;2.53;;;17.40;99.90;;;;;;4993591;28;20208;-74
2023/05/23 03:37:20;;;;;;;3.47;2.47;;;17.40;99.90;;;;;;4993744;28;20176;-73
2023/05/23 03:39:46;;;;;;;2.80;2.50;;;17.40;99.90;;;;;;4993841;28;20196;-72
2023/05/23 03:42:14;;;;;;;3.13;2.70;;;17.40;99.90;;;;;;5007062;28;20184;-72
2023/05/23 03:44:39;;;;;;;4.47;2.92;;;17.40;99.90;;;;;;4980208;28;20171;-71
2023/05/23 03:47:05;;;;;;;3.50;2.88;;;17.40;99.90;;;;;;4983827;28;20199;-73
2023/05/23 03:49:31;;;;;;;3.35;2.80;;;17.40;99.90;;;;;;4994873;28;20183;-73
2023/05/23 03:51:56;;;;;;;3.72;3.20;;;17.40;99.90;;;;;;4992901;28;20222;-72
2023/05/23 03:54:22;;;;;;;4.95;3.22;;;17.40;99.90;;;;;;4990555;28;20194;-73
2023/05/23 03:56:48;;;;;;;4.20;3.17;;;17.40;99.90;;;;;;4991103;28;20176;-71
2023/05/23 03:59:16;;;;;;;4.60;3.72;;;17.40;99.90;;;;;;4990008;28;20195;-73
2023/05/23 04:01:42;;;;;;;4.38;3.60;;;17.40;99.90;;;;;;4990136;28;20265;-72
2023/05/23 04:04:10;;;;;;;5.22;3.67;;;17.40;99.90;;;;;;4996179;28;20191;-71
2023/05/23 04:06:38;;;;;;;4.03;3.63;;;17.40;99.90;;;;;;4994029;28;20215;-72
2023/05/23 04:09:06;;;;;;;6.03;4.90;;;17.30;99.90;;;;;;4983499;28;20179;-72
2023/05/23 04:11:32;;;;;;;5.22;3.80;;;17.30;99.90;;;;;;4983054;28;20208;-73
2023/05/23 04:13:57;;;;;;;4.75;4.25;;;17.30;99.90;;;;;;4994037;28;20195;-73
2023/05/23 04:16:25;;;;;;;4.75;3.97;;;17.20;99.90;;;;;;4993448;28;20255;-73
2023/05/23 04:18:51;;;;;;;4.50;4.03;;;17.10;99.90;;;;;;4992576;28;20203;-72
2023/05/23 04:21:16;;;;;;;6.47;4.60;;;17.00;99.90;;;;;;4991218;28;20266;-72
2023/05/23 04:23:44;;;;;;;5.22;4.47;;;16.80;99.90;;;;;;4994872;28;20199;-71
2023/05/23 04:26:11;;;;;;;4.63;3.80;;;16.70;99.90;;;;;;4993048;28;20183;-73
2023/05/23 04:28:38;;;;;;;4.88;4.13;;;16.60;99.90;;;;;;4985550;28;20187;-73
2023/05/23 04:31:07;;;;;;;5.55;4.30;;;16.60;99.90;;;;;;4987894;28;20186;-73
2023/05/23 04:33:37;;;;;;;4.40;3.75;;;16.50;99.90;;;;;;4991660;28;20200;-73
2023/05/23 04:36:04;;;;;;;5.38;3.90;;;16.40;99.90;;;;;;5002695;28;20186;-73
2023/05/23 04:38:30;;;;;;;7.22;4.50;;;16.40;99.90;;;;;;4994410;28;20183;-73
2023/05/23 04:40:56;;;;;;;7.45;4.13;;;16.30;99.90;;;;;;4993741;28;20217;-71
2023/05/23 04:43:25;;;;;;;4.72;3.95;;;16.30;99.90;;;;;;4989712;28;20198;-72
2023/05/23 04:45:56;;;;;;;5.22;4.07;;;16.30;99.90;;;;;;4991627;28;20187;-73
2023/05/23 04:48:25;;;;;;;4.30;3.85;;;16.20;99.90;;;;;;4986193;28;20183;-70
2023/05/23 04:50:51;;;;;;;5.63;3.95;;;16.30;99.90;;;;;;4992644;28;20183;-73
2023/05/23 04:53:20;;;;;;;4.93;4.00;;;16.20;99.90;;;;;;4992371;28;20280;-73
2023/05/23 04:55:45;;;;;;;4.75;4.05;;;16.30;99.90;;;;;;4991819;28;20198;-73
2023/05/23 04:58:11;;;;;;;5.15;3.95;;;16.20;99.90;;;;;;4995957;28;20171;-73
2023/05/23 05:00:40;;;;;;;5.40;4.20;;;16.20;99.90;;;;;;4987494;28;20191;-72
2023/05/23 05:03:05;;;;;;;5.80;4.40;;;16.20;99.90;;;;;;4990853;28;20195;-73
2023/05/23 05:05:31;;;;;;;5.00;4.10;;;16.20;99.90;;;;;;4991888;28;20203;-73
2023/05/23 05:07:56;;;;;;;5.82;4.07;;;16.10;99.90;;;;;;4991361;28;20194;-70
2023/05/23 05:10:24;;;;;;;5.88;4.72;;;16.20;99.90;;;;;;4989168;28;20194;-72
2023/05/23 05:12:50;;;;;;;4.95;4.00;;;16.20;99.90;;;;;;4987359;28;20211;-71
2023/05/23 05:15:16;;;;;;;6.45;4.55;;;16.20;99.90;;;;;;4989643;28;20423;-74
2023/05/23 05:17:43;;;;;;;6.60;4.80;;;16.30;99.90;;;;;;5000874;28;20195;-72
2023/05/23 05:20:12;;;;;;;6.75;4.88;;;16.30;99.90;;;;;;4990706;28;20242;-72
2023/05/23 05:22:41;;;;;;;6.65;4.95;;;16.40;99.90;;;;;;4981557;28;20238;-73
2023/05/23 05:25:08;;;;;;;7.05;5.20;;;16.40;99.90;;;;;;4994505;28;20178;-73
2023/05/23 05:27:36;;;;;;;7.63;5.03;;;16.40;99.90;;;;;;4987811;28;20180;-73
2023/05/23 05:30:07;;;;;;;6.35;4.75;;;16.40;99.90;;;;;;4979814;28;20207;-72
2023/05/23 05:32:36;;;;;;;5.47;4.90;;;16.40;99.90;;;;;;4994558;28;20218;-72
2023/05/23 05:35:02;;;;;;;5.60;4.75;;;16.40;99.90;;;;;;4994019;28;20195;-73
2023/05/23 05:37:31;;;;;;;5.43;4.05;;;16.40;99.90;;;;;;4994466;28;20178;-74
2023/05/23 05:40:05;;;;;;;5.05;4.47;;;16.50;99.90;;;;;;4993722;28;20261;-74
2023/05/23 05:42:30;;;;;;;8.05;5.50;;;16.40;99.90;;;;;;4993923;28;20172;-73
2023/05/23 05:44:58;;;;;;;6.00;4.45;;;16.40;99.90;;;;;;4994028;28;20238;-74
2023/05/23 05:47:24;;;;;;;6.35;4.57;;;16.40;99.90;;;;;;4995348;28;20231;-74
2023/05/23 05:49:50;;;;;;;5.70;4.40;;;16.30;99.90;;;;;;5013255;28;20181;-73
2023/05/23 05:52:18;;;;;;;6.38;4.38;;;16.30;99.90;;;;;;5013297;28;20190;-74
2023/05/23 05:54:46;;;;;;;7.20;4.80;;;16.30;99.90;;;;;;5013322;28;20238;-73
2023/05/23 05:57:12;;;;;;;5.38;4.35;;;16.20;99.90;;;;;;5000039;28;20262;-74
2023/05/23 05:59:37;;;;;;;5.57;4.60;;;16.20;99.90;;;;;;4991819;28;20184;-73
2023/05/23 06:02:03;;;;;;;6.55;4.57;;;16.20;99.90;;;;;;4993120;28;20214;-73
2023/05/23 06:04:31;;;;;;;7.07;4.68;;;16.30;99.90;;;;;;4990059;28;20176;-74
2023/05/23 06:06:56;;;;;;;5.43;4.32;;;16.30;99.90;;;;;;4997014;28;20218;-71
2023/05/23 06:09:22;;;;;;;6.68;4.93;;;16.30;99.90;;;;;;4992131;28;20184;-72
2023/05/23 06:11:48;;;;;;;8.52;4.72;;;16.40;99.90;;;;;;4994153;28;20206;-74
2023/05/23 06:14:13;;;;;;;6.60;4.93;;;16.40;99.90;;;;;;4988426;28;20205;-73
2023/05/23 06:16:41;;;;;;;7.50;4.63;;;16.50;99.90;;;;;;4971363;28;1216722;-73
2023/05/23 06:19:07;;;;;;;7.53;4.20;;;16.50;99.90;;;;;;4994249;28;20172;-75
2023/05/23 06:21:35;;;;;;;5.47;4.07;;;16.50;99.90;;;;;;4989674;28;20211;-70
2023/05/23 06:24:00;;;;;;;6.63;5.30;;;16.60;99.90;;;;;;4986665;28;20183;-72
2023/05/23 06:26:33;;;;;;;7.32;5.13;;;16.60;99.90;;;;;;4994685;28;20176;-71
2023/05/23 06:28:59;;;;;;;7.78;5.45;;;16.60;99.90;;;;;;4988711;28;20188;-71
2023/05/23 06:31:27;;;;;;;8.68;5.13;;;16.60;99.90;;;;;;4997570;28;20209;-72
2023/05/23 06:33:53;;;;;;;7.82;5.28;;;16.60;99.90;;;;;;4978254;28;20192;-74
2023/05/23 06:36:18;;;;;;;9.35;5.10;;;16.60;99.90;;;;;;4992877;28;20175;-73
2023/05/23 06:38:44;;;;;;;6.97;4.82;;;16.60;99.90;;;;;;4991558;28;20526;-73
2023/05/23 06:41:14;;;;;;;7.15;5.60;;;16.70;99.90;;;;;;4997580;28;20246;-72
2023/05/23 06:43:40;;;;;;;6.13;5.10;;;16.60;99.90;;;;;;4997323;28;20179;-73
2023/05/23 06:46:08;;;;;;;7.55;5.43;;;16.70;99.90;;;;;;4997683;28;20194;-73
2023/05/23 06:48:36;;;;;;;7.63;6.10;;;16.70;99.90;;;;;;4991784;28;20211;-74
2023/05/23 06:51:04;;;;;;;9.00;6.07;;;16.70;99.90;;;;;;4997481;28;20183;-72
2023/05/23 06:53:29;;;;;;;8.07;5.78;;;16.70;99.90;;;;;;4993972;28;20216;-73
2023/05/23 06:55:57;;;;;;;7.88;6.15;;;16.70;99.90;;;;;;4994163;28;20373;-73
2023/05/23 06:58:26;;;;;;;9.52;6.35;;;16.70;99.90;;;;;;4985437;28;20474;-67
2023/05/23 07:00:54;;;;;;;6.50;5.65;;;16.70;99.90;;;;;;4983883;28;20199;-73
2023/05/23 07:03:20;;;;;;;9.05;6.50;;;16.70;99.90;;;;;;5005821;28;20272;-70
2023/05/23 07:05:48;;;;;;;6.78;5.45;;;16.70;99.90;;;;;;4993896;28;20196;-73
2023/05/23 07:08:13;;;;;;;10.18;5.65;;;16.70;99.90;;;;;;4996664;28;20203;-66
2023/05/23 07:10:41;;;;;;;6.95;5.63;;;16.70;99.90;;;;;;4995080;28;20214;-73
2023/05/23 07:13:12;;;;;;;8.18;5.80;;;16.70;99.90;;;;;;4996346;28;20275;-73
2023/05/23 07:15:37;;;;;;;7.05;6.05;;;16.80;99.90;;;;;;4994919;28;20468;-73
2023/05/23 07:18:03;;;;;;;7.88;6.10;;;16.80;99.90;;;;;;4996793;28;20194;-71
2023/05/23 07:20:31;;;;;;;8.23;5.95;;;16.80;99.90;;;;;;4993142;28;20176;-74
2023/05/23 07:22:59;;;;;;;8.80;5.95;;;16.80;99.90;;;;;;4994657;28;20191;-73
2023/05/23 07:25:25;;;;;;;6.68;5.70;;;16.80;99.90;;;;;;4978185;28;20184;-71
2023/05/23 07:27:56;;;;;;;7.88;5.45;;;16.80;99.90;;;;;;4977680;28;20203;-73
2023/05/23 07:30:21;;;;;;;6.68;5.95;;;16.80;99.90;;;;;;4993106;28;20175;-73
2023/05/23 07:32:54;;;;;;;7.68;5.22;;;16.80;99.90;;;;;;4996506;28;20199;-73
2023/05/23 07:35:22;;;;;;;8.68;5.60;;;16.80;99.90;;;;;;4997276;28;20199;-73
2023/05/23 07:37:51;;;;;;;7.95;5.38;;;16.80;99.90;;;;;;4996528;28;20226;-74
2023/05/23 07:40:17;;;;;;;8.18;5.97;;;16.90;99.90;;;;;;4996751;28;20184;-73
2023/05/23 07:42:43;;;;;;;6.07;4.95;;;16.90;99.90;;;;;;4996750;28;20203;-73
2023/05/23 07:45:14;;;;;;;6.53;4.68;;;16.90;99.90;;;;;;4996652;28;20179;-72
2023/05/23 07:47:40;;;;;;;7.10;4.82;;;16.90;99.90;;;;;;4988099;28;20179;-73
2023/05/23 07:50:09;;;;;;;5.97;4.50;;;16.90;99.90;;;;;;4996590;28;20264;-72
2023/05/23 07:52:37;;;;;;;6.00;4.28;;;17.00;99.90;;;;;;4996421;28;20210;-72
2023/05/23 07:55:03;;;;;;;6.00;4.25;;;17.00;99.90;;;;;;4992896;28;20207;-73
2023/05/23 07:57:29;;;;;;;5.90;4.40;;;17.10;99.90;;;;;;4984959;28;20231;-73
2023/05/23 07:59:55;;;;;;;5.57;4.40;;;17.10;99.90;;;;;;4980319;28;20176;-73
2023/05/23 08:02:20;;;;;;;5.18;3.80;;;17.20;99.90;;;;;;4994065;28;20199;-74
2023/05/23 08:04:47;;;;;;;5.38;3.90;;;17.20;99.90;;;;;;4994369;28;20194;-73
2023/05/23 08:07:13;;;;;;;7.10;4.28;;;17.30;99.90;;;;;;4989858;28;20263;-74
2023/05/23 08:09:39;;;;;;;4.90;4.10;;;17.30;99.90;;;;;;4991858;28;20310;-73
2023/05/23 08:12:10;;;;;;;5.30;4.18;;;17.40;99.90;;;;;;4995373;28;20202;-74
2023/05/23 08:14:35;;;;;;;5.38;3.75;;;17.40;99.90;;;;;;4991058;28;20547;-74
2023/05/23 08:17:01;;;;;;;5.97;3.72;;;17.50;99.90;;;;;;4978641;28;20203;-74
2023/05/23 08:19:29;;;;;;;4.60;3.60;;;17.50;99.90;;;;;;5004429;28;20246;-72
2023/05/23 08:21:55;;;;;;;5.32;3.50;;;17.40;99.90;;;;;;4995129;28;20187;-71
2023/05/23 08:24:21;;;;;;;5.93;3.30;;;17.50;99.90;;;;;;4995946;28;20179;-71
2023/05/23 08:26:49;;;;;;;5.57;3.85;;;17.50;99.90;;;;;;4985080;28;20192;-73
2023/05/23 08:29:17;;;;;;;4.68;3.63;;;17.50;99.90;;;;;;4983690;28;20203;-72
2023/05/23 08:31:43;;;;;;;4.53;3.83;;;17.50;99.90;;;;;;4995327;28;20232;-70
2023/05/23 08:34:11;;;;;;;6.63;3.92;;;17.50;99.90;;;;;;4994510;28;20215;-73
2023/05/23 08:36:38;;;;;;;5.07;4.05;;;17.50;99.90;;;;;;4990036;28;20295;-73
2023/05/23 08:39:06;;;;;;;4.80;3.47;;;17.50;99.90;;;;;;4995047;28;20435;-65
2023/05/23 08:41:33;;;;;;;4.85;3.70;;;17.50;99.90;;;;;;4994566;28;20179;-74
2023/05/23 08:43:58;;;;;;;4.68;3.50;;;17.50;99.90;;;;;;4991931;28;20196;-74
2023/05/23 08:46:27;;;;;;;4.05;3.42;;;17.50;99.90;;;;;;5010291;28;20175;-73
2023/05/23 08:48:54;;;;;;;6.57;3.90;;;17.50;99.90;;;;;;4991853;28;20186;-70
2023/05/23 08:51:27;;;;;;;4.55;3.78;;;17.50;99.90;;;;;;4992698;28;20203;-72
2023/05/23 08:53:55;;;;;;;6.60;4.47;;;17.50;99.90;;;;;;4992428;28;20223;-72
2023/05/23 08:56:24;;;;;;;5.28;3.83;;;17.40;99.90;;;;;;4991223;28;20192;-71
2023/05/23 08:58:52;;;;;;;7.10;3.75;;;17.40;99.90;;;;;;4996047;28;20178;-72
2023/05/23 09:01:21;;;;;;;4.45;3.47;;;17.40;99.90;;;;;;4994321;28;20183;-73
2023/05/23 09:03:49;;;;;;;4.80;3.80;;;17.40;99.90;;;;;;4992713;28;20225;-70
2023/05/23 09:06:18;;;;;;;4.80;3.78;;;17.40;99.90;;;;;;4981776;28;20271;-74
2023/05/23 09:08:45;;;;;;;6.35;4.25;;;17.40;99.90;;;;;;4998616;28;20183;-75
2023/05/23 09:11:12;;;;;;;6.22;4.30;;;17.40;99.90;;;;;;4994673;28;20179;-74
2023/05/23 09:13:41;;;;;;;4.78;3.70;;;17.40;99.90;;;;;;4995204;28;20342;-72
2023/05/23 09:16:09;;;;;;;5.13;3.50;;;17.40;99.90;;;;;;4983861;28;20188;-74
2023/05/23 09:18:45;;;;;;;5.70;3.60;;;17.40;99.90;;;;;;4993001;28;20319;-74
2023/05/23 09:21:12;;;;;;;4.28;3.47;;;17.40;99.90;;;;;;4992752;28;20171;-74
2023/05/23 09:23:40;;;;;;;5.50;3.88;;;17.40;99.90;;;;;;4994093;28;20214;-74
2023/05/23 09:26:12;;;;;;;6.05;4.68;;;17.40;99.90;;;;;;4995260;28;20176;-72
2023/05/23 09:28:45;;;;;;;6.35;5.18;;;17.40;99.90;;;;;;4994698;28;20176;-74
2023/05/23 09:31:11;;;;;;;6.38;4.80;;;17.40;99.90;;;;;;4975841;28;20262;-75
2023/05/23 09:33:48;;;;;;;6.85;4.53;;;17.40;99.90;;;;;;4975701;28;20203;-74
2023/05/23 09:36:16;;;;;;;7.72;4.75;;;17.30;99.90;;;;;;4988515;28;20175;-74
2023/05/23 09:38:46;;;;;;;7.18;4.78;;;17.30;99.90;;;;;;4995058;28;20183;-74
2023/05/23 09:41:12;;;;;;;6.80;4.80;;;17.20;99.90;;;;;;4995067;28;20172;-73
2023/05/23 09:43:39;;;;;;;8.68;5.18;;;17.10;99.90;;;;;;4994886;28;20203;-73
2023/05/23 09:46:13;;;;;;;7.90;4.97;;;17.10;99.90;;;;;;4982065;28;20423;-71
2023/05/23 09:48:39;;;;;;;7.82;4.65;;;17.00;99.90;;;;;;4979465;28;20180;-74
2023/05/23 09:51:11;;;;;;;5.60;4.40;;;17.00;99.90;;;;;;4979470;28;20227;-74
2023/05/23 09:53:36;;;;;;;8.10;4.47;;;17.00;99.90;;;;;;4979072;28;20203;-72
2023/05/23 09:56:03;;;;;;;8.85;5.35;;;17.00;99.90;;;;;;4997173;28;20257;-71
2023/05/23 09:58:29;;;;;;;6.43;4.25;;;17.00;99.90;;;;;;5000331;28;20175;-75
2023/05/23 10:01:04;;;;;;;7.82;5.10;;;17.10;99.90;;;;;;5004102;28;20171;-73
2023/05/23 10:03:43;;;;;;;8.05;4.60;;;17.10;99.90;;;;;;4998489;28;20195;-73
2023/05/23 10:06:39;;;;;;;7.95;4.70;;;17.10;99.90;;;;;;4981849;28;20274;-74
2023/05/23 10:09:10;;;;;;;8.05;4.43;;;17.10;99.90;;;;;;4987014;28;20195;-73
2023/05/23 10:11:35;;;;;;;7.28;4.30;;;17.10;99.90;;;;;;5003113;28;20227;-71
2023/05/23 10:14:08;;;;;;;10.73;5.35;;;17.10;99.90;;;;;;4998206;28;20210;-70
2023/05/23 10:16:39;;;;;;;9.48;5.00;;;17.10;99.90;;;;;;4993267;28;20278;-73
2023/05/23 10:19:27;;;;;;;8.02;4.78;;;17.00;99.90;;;;;;4997634;28;20210;-71
2023/05/23 10:21:58;;;;;;;8.85;4.40;;;16.90;99.90;;;;;;4994706;28;20246;-73
2023/05/23 10:24:25;;;;;;;6.13;4.05;;;16.90;99.90;;;;;;5005110;28;20203;-72
2023/05/23 10:26:53;;;;;;;6.47;4.18;;;16.80;99.90;;;;;;4989806;28;20183;-73
2023/05/23 10:29:23;;;;;;;7.15;4.30;;;16.70;99.90;;;;;;4987847;28;20278;-71
2023/05/23 10:31:55;;;;;;;10.50;4.78;;;16.60;99.90;;;;;;4990155;28;20272;-73
2023/05/23 10:34:51;;;;;;;7.25;4.30;;;16.60;99.90;;;;;;4983288;28;20179;-73
2023/05/23 10:37:40;;;;;;;5.40;3.90;;;16.60;99.90;;;;;;4985213;28;20182;-73
2023/05/23 10:40:29;;;;;;;6.80;4.55;;;16.60;99.90;;;;;;4995108;28;20164;-72
2023/05/23 10:43:04;;;;;;;7.85;4.40;;;16.50;99.90;;;;;;4987996;28;20241;-72
2023/05/23 10:45:42;;;;;;;7.47;4.50;;;16.50;99.90;;;;;;4997525;28;20199;-74
2023/05/23 10:48:22;;;;;;;6.00;4.15;;;16.40;99.90;;;;;;4995337;28;20255;-71
2023/05/23 10:51:08;;;;;;;8.30;4.70;;;16.40;99.90;;;;;;4978320;28;20234;-73
2023/05/23 10:53:36;;;;;;;5.78;4.20;;;16.40;99.90;;;;;;4992930;28;20203;-74
2023/05/23 10:56:05;;;;;;;7.28;4.60;;;16.40;99.90;;;;;;4987108;28;20247;-73
2023/05/23 10:58:41;;;;;;;8.82;4.40;;;16.40;99.90;;;;;;4993086;28;20272;-73
2023/05/23 11:01:07;;;;;;;8.10;4.82;;;16.40;99.90;;;;;;4992543;28;20183;-72
2023/05/23 11:03:36;;;;;;;7.53;4.47;;;16.40;99.90;;;;;;4985893;28;20184;-72
2023/05/23 11:06:06;;;;;;;8.55;4.53;;;16.40;99.90;;;;;;4981113;28;20314;-71
2023/05/23 11:08:41;;;;;;;7.00;3.80;;;16.50;99.90;;;;;;4991128;28;20194;-71
2023/05/23 11:11:07;;;;;;;5.68;3.70;;;16.60;99.90;;;;;;4981292;28;20252;-73
2023/05/23 11:13:56;;;;;;;7.38;4.50;;;16.70;99.90;;;;;;5000796;28;20303;-74
2023/05/23 11:16:24;;;;;;;9.45;5.60;;;16.90;99.90;;;;;;5005270;28;20195;-74
2023/05/23 11:18:50;;;;;;;6.72;5.20;;;17.00;99.90;;;;;;4986441;28;20204;-73
2023/05/23 11:21:20;;;;;;;6.63;5.20;;;17.20;99.90;;;;;;4977746;28;20259;-74
2023/05/23 11:23:55;;;;;;;6.90;5.43;;;17.50;99.90;;;;;;4978065;28;20199;-74
2023/05/23 11:26:39;;;;;;;10.30;6.00;;;17.70;99.90;;;;;;4996880;28;20210;-73
2023/05/23 11:29:08;;;;;;;8.32;6.28;;;17.90;99.90;;;;;;4996756;28;20183;-75
2023/05/23 11:31:40;;;;;;;6.10;5.30;;;18.10;99.90;;;;;;4997028;28;20203;-74
2023/05/23 11:34:06;;;;;;;8.75;6.38;;;18.20;99.90;;;;;;4997063;28;20217;-73
2023/05/23 11:36:34;;;;;;;9.88;5.90;;;18.30;99.90;;;;;;4996827;28;20210;-74
2023/05/23 11:39:05;;;;;;;7.88;6.13;;;18.40;99.90;;;;;;4996821;28;20207;-73
2023/05/23 11:41:33;;;;;;;9.32;6.85;;;18.50;99.90;;;;;;4996763;28;20178;-74
2023/05/23 11:44:10;;;;;;;8.68;6.70;;;18.60;99.90;;;;;;4993497;28;20190;-75
2023/05/23 11:46:36;;;;;;;6.22;5.18;;;18.70;99.90;;;;;;4993532;28;20192;-75
2023/05/23 11:49:09;;;;;;;8.07;5.05;;;18.80;99.90;;;;;;4996407;28;20245;-74
2023/05/23 11:51:35;;;;;;;6.13;4.55;;;18.80;99.90;;;;;;4996774;28;20182;-73
2023/05/23 11:54:03;;;;;;;7.45;5.07;;;18.80;99.90;;;;;;4996348;28;20214;-75
2023/05/23 11:56:31;;;;;;;8.52;4.90;;;18.70;99.90;;;;;;4985954;28;20179;-74
2023/05/23 11:58:56;;;;;;;7.60;5.10;;;18.60;99.90;;;;;;4989359;28;20203;-75
2023/05/23 12:01:30;;;;;;;6.95;4.25;;;18.50;99.90;;;;;;4985473;28;20179;-72
2023/05/23 12:03:58;;;;;;;10.57;5.05;;;18.60;99.90;;;;;;4989284;28;20448;-75
2023/05/23 12:06:26;;;;;;;8.40;5.88;;;18.70;99.90;;;;;;4992510;28;20199;-73
2023/05/23 12:08:55;;;;;;;7.53;5.88;;;18.70;99.90;;;;;;4995876;28;20183;-73
2023/05/23 12:11:22;;;;;;;10.27;6.03;;;18.70;99.90;;;;;;4991899;28;20168;-73
2023/05/23 12:13:48;;;;;;;8.20;6.40;;;18.80;99.90;;;;;;4995212;28;20191;-75
2023/05/23 12:16:14;;;;;;;8.43;6.00;;;18.80;99.90;;;;;;4995244;28;20187;-74
2023/05/23 12:18:43;;;;;;;8.75;6.65;;;18.80;99.90;;;;;;4995284;28;20171;-72
2023/05/23 12:21:12;;;;;;;11.18;6.70;;;18.90;99.90;;;;;;4992560;28;20200;-74
2023/05/23 12:23:41;;;;;;;9.73;6.28;;;18.90;99.90;;;;;;4989945;28;20194;-75
2023/05/23 12:26:08;;;;;;;9.52;6.18;;;19.00;99.90;;;;;;5003365;28;20195;-74
2023/05/23 12:28:41;;;;;;;9.40;7.22;;;18.90;99.90;;;;;;4995206;28;20210;-74
2023/05/23 12:31:17;;;;;;;11.35;7.57;;;19.00;99.90;;;;;;4995157;28;20187;-74
2023/05/23 12:33:44;;;;;;;9.48;7.18;;;19.10;99.90;;;;;;4987155;28;20235;-71
2023/05/23 12:36:13;;;;;;;9.85;7.25;;;19.10;99.90;;;;;;4994846;28;20175;-74
2023/05/23 12:38:44;;;;;;;8.98;7.07;;;19.20;99.90;;;;;;4982219;28;20180;-74
2023/05/23 12:41:20;;;;;;;7.93;6.20;;;19.20;99.90;;;;;;4985399;28;20192;-73
2023/05/23 12:43:54;;;;;;;9.35;6.97;;;19.30;99.90;;;;;;4996243;28;20221;-73
2023/05/23 12:46:28;;;;;;;9.38;6.93;;;19.30;99.90;;;;;;4991789;28;20195;-74
2023/05/23 12:48:54;;;;;;;7.55;6.30;;;19.40;99.90;;;;;;4994676;28;20179;-72
2023/05/23 12:51:22;;;;;;;7.05;6.35;;;19.50;99.90;;;;;;4995377;28;20229;-73
2023/05/23 12:53:49;;;;;;;8.75;6.30;;;19.60;99.90;;;;;;4993841;28;20246;-74